Terminal Aerodrome Forecast
Issued by NWS

Home | Current Version | Previous Version | Text Only | Print | Product List | Glossary On
Versions: 1 2 3 4 5 6 7 8 9 10 11 12 13
000
FTUS43 KILX 201735
TAFBMI
TAF
KBMI 201735Z 2018/2118 20010KT P6SM SCT250
     FM201900 19012G17KT P6SM SCT250
     FM210000 17011KT P6SM BKN250
     FM211400 18015G20KT P6SM SCT120 BKN200=

USA.gov is the U.S. government's official web portal to all federal, state and local government web resources and services.